sensor_id;sensor_type;location;lat;lon;timestamp;pressure;altitude;pressure_sealevel;temperature;humidity
19005;BME280;9635;52.078;8.648;2022-07-12T00:03:57;101303.69;;;14.21;80.13
19005;BME280;9635;52.078;8.648;2022-07-12T00:09:00;101309.47;;;14.16;79.85
19005;BME280;9635;52.078;8.648;2022-07-12T00:14:04;101309.72;;;14.13;79.47
19005;BME280;9635;52.078;8.648;2022-07-12T00:19:08;101311.94;;;13.97;79.97
19005;BME280;9635;52.078;8.648;2022-07-12T00:24:11;101309.09;;;13.87;80.24
19005;BME280;9635;52.078;8.648;2022-07-12T00:29:14;101316.00;;;13.91;80.52
19005;BME280;9635;52.078;8.648;2022-07-12T00:34:18;101304.94;;;13.83;80.19
19005;BME280;9635;52.078;8.648;2022-07-12T00:39:21;101308.75;;;13.58;81.00
19005;BME280;9635;52.078;8.648;2022-07-12T00:44:24;101310.56;;;13.57;81.10
19005;BME280;9635;52.078;8.648;2022-07-12T00:49:30;101314.88;;;13.60;81.04
19005;BME280;9635;52.078;8.648;2022-07-12T00:54:33;101313.91;;;13.61;81.02
19005;BME280;9635;52.078;8.648;2022-07-12T00:59:36;101307.50;;;13.51;80.16
19005;BME280;9635;52.078;8.648;2022-07-12T01:04:41;101308.25;;;13.53;80.26
19005;BME280;9635;52.078;8.648;2022-07-12T01:09:45;101302.47;;;13.46;79.81
19005;BME280;9635;52.078;8.648;2022-07-12T01:14:50;101300.50;;;13.48;79.42
19005;BME280;9635;52.078;8.648;2022-07-12T01:19:56;101293.66;;;13.55;79.66
19005;BME280;9635;52.078;8.648;2022-07-12T01:25:01;101286.78;;;13.51;79.22
19005;BME280;9635;52.078;8.648;2022-07-12T01:30:06;101275.13;;;13.51;78.75
19005;BME280;9635;52.078;8.648;2022-07-12T01:35:09;101280.34;;;13.30;79.35
19005;BME280;9635;52.078;8.648;2022-07-12T01:40:15;101271.88;;;13.23;80.29
19005;BME280;9635;52.078;8.648;2022-07-12T01:45:18;101279.19;;;13.10;80.54
19005;BME280;9635;52.078;8.648;2022-07-12T01:50:21;101271.22;;;13.08;81.03
19005;BME280;9635;52.078;8.648;2022-07-12T01:55:25;101273.28;;;12.93;81.40
19005;BME280;9635;52.078;8.648;2022-07-12T02:00:29;101273.44;;;13.03;81.31
19005;BME280;9635;52.078;8.648;2022-07-12T02:05:34;101273.28;;;13.04;80.81
19005;BME280;9635;52.078;8.648;2022-07-12T02:10:39;101274.50;;;12.89;80.65
19005;BME280;9635;52.078;8.648;2022-07-12T02:15:41;101269.47;;;12.60;81.18
19005;BME280;9635;52.078;8.648;2022-07-12T02:20:44;101281.25;;;12.35;81.95
19005;BME280;9635;52.078;8.648;2022-07-12T02:25:49;101279.16;;;12.39;80.94
19005;BME280;9635;52.078;8.648;2022-07-12T02:30:51;101280.44;;;12.46;80.58
19005;BME280;9635;52.078;8.648;2022-07-12T02:35:54;101283.66;;;12.51;80.50
19005;BME280;9635;52.078;8.648;2022-07-12T02:40:59;101297.50;;;12.58;79.96
19005;BME280;9635;52.078;8.648;2022-07-12T02:46:06;101295.75;;;12.46;80.26
19005;BME280;9635;52.078;8.648;2022-07-12T02:51:09;101307.16;;;12.49;80.30
19005;BME280;9635;52.078;8.648;2022-07-12T02:56:13;101299.81;;;12.51;80.67
19005;BME280;9635;52.078;8.648;2022-07-12T03:01:16;101305.72;;;12.56;80.18
19005;BME280;9635;52.078;8.648;2022-07-12T03:06:19;101305.72;;;12.56;79.92
19005;BME280;9635;52.078;8.648;2022-07-12T03:11:23;101320.81;;;12.59;79.70
19005;BME280;9635;52.078;8.648;2022-07-12T03:16:26;101323.38;;;12.60;79.43
19005;BME280;9635;52.078;8.648;2022-07-12T03:21:29;101318.41;;;12.67;79.10
19005;BME280;9635;52.078;8.648;2022-07-12T03:26:33;101315.19;;;12.62;78.03
19005;BME280;9635;52.078;8.648;2022-07-12T03:31:36;101323.81;;;12.67;77.99
19005;BME280;9635;52.078;8.648;2022-07-12T03:36:39;101325.38;;;12.70;77.48
19005;BME280;9635;52.078;8.648;2022-07-12T03:41:44;101327.16;;;12.82;77.21
19005;BME280;9635;52.078;8.648;2022-07-12T03:46:46;101331.59;;;12.94;77.18
19005;BME280;9635;52.078;8.648;2022-07-12T03:51:50;101329.47;;;13.11;77.19
19005;BME280;9635;52.078;8.648;2022-07-12T03:56:54;101345.72;;;13.22;77.33
19005;BME280;9635;52.078;8.648;2022-07-12T04:02:14;101342.03;;;13.34;77.27
19005;BME280;9635;52.078;8.648;2022-07-12T04:07:17;101340.75;;;13.40;77.26
19005;BME280;9635;52.078;8.648;2022-07-12T04:12:22;101346.91;;;13.64;77.44
19005;BME280;9635;52.078;8.648;2022-07-12T04:17:25;101353.91;;;13.56;76.79
19005;BME280;9635;52.078;8.648;2022-07-12T04:22:28;101356.13;;;13.96;77.21
19005;BME280;9635;52.078;8.648;2022-07-12T04:27:32;101351.31;;;14.33;76.39
19005;BME280;9635;52.078;8.648;2022-07-12T04:32:35;101358.56;;;14.55;75.36
19005;BME280;9635;52.078;8.648;2022-07-12T04:37:38;101365.63;;;14.78;74.57
19005;BME280;9635;52.078;8.648;2022-07-12T04:42:42;101369.53;;;14.86;74.25
19005;BME280;9635;52.078;8.648;2022-07-12T04:47:45;101362.94;;;14.99;74.01
19005;BME280;9635;52.078;8.648;2022-07-12T04:52:48;101375.03;;;14.95;73.83
19005;BME280;9635;52.078;8.648;2022-07-12T04:57:52;101372.47;;;14.82;73.72
19005;BME280;9635;52.078;8.648;2022-07-12T05:02:55;101373.38;;;15.04;73.93
19005;BME280;9635;52.078;8.648;2022-07-12T05:07:58;101367.59;;;15.30;73.76
19005;BME280;9635;52.078;8.648;2022-07-12T05:13:02;101376.31;;;15.44;73.19
19005;BME280;9635;52.078;8.648;2022-07-12T05:18:05;101388.97;;;15.44;72.73
19005;BME280;9635;52.078;8.648;2022-07-12T05:23:08;101398.22;;;15.62;72.76
19005;BME280;9635;52.078;8.648;2022-07-12T05:28:13;101400.91;;;15.62;72.47
19005;BME280;9635;52.078;8.648;2022-07-12T05:33:16;101405.94;;;15.67;72.40
19005;BME280;9635;52.078;8.648;2022-07-12T05:38:19;101411.00;;;15.81;72.51
19005;BME280;9635;52.078;8.648;2022-07-12T05:43:23;101404.19;;;15.87;73.32
19005;BME280;9635;52.078;8.648;2022-07-12T05:48:26;101402.59;;;16.05;72.72
19005;BME280;9635;52.078;8.648;2022-07-12T05:53:29;101405.25;;;15.96;72.46
19005;BME280;9635;52.078;8.648;2022-07-12T05:58:33;101392.47;;;16.07;73.02
19005;BME280;9635;52.078;8.648;2022-07-12T06:03:41;101388.88;;;16.28;72.64
19005;BME280;9635;52.078;8.648;2022-07-12T06:08:44;101385.31;;;16.37;72.81
19005;BME280;9635;52.078;8.648;2022-07-12T06:13:48;101382.63;;;16.37;73.34
19005;BME280;9635;52.078;8.648;2022-07-12T06:18:52;101391.13;;;16.63;73.89
19005;BME280;9635;52.078;8.648;2022-07-12T06:23:54;101384.16;;;16.90;72.95
19005;BME280;9635;52.078;8.648;2022-07-12T06:28:59;101396.03;;;16.98;71.85
19005;BME280;9635;52.078;8.648;2022-07-12T06:34:02;101400.03;;;17.04;72.03
19005;BME280;9635;52.078;8.648;2022-07-12T06:39:05;101407.75;;;17.38;71.24
19005;BME280;9635;52.078;8.648;2022-07-12T06:44:09;101395.50;;;17.34;70.55
19005;BME280;9635;52.078;8.648;2022-07-12T06:49:12;101401.34;;;17.96;66.50
19005;BME280;9635;52.078;8.648;2022-07-12T06:54:15;101394.22;;;18.60;65.37
19005;BME280;9635;52.078;8.648;2022-07-12T06:59:19;101383.41;;;19.31;63.23
19005;BME280;9635;52.078;8.648;2022-07-12T07:04:22;101398.88;;;19.66;62.43
19005;BME280;9635;52.078;8.648;2022-07-12T07:09:25;101393.66;;;19.19;61.08
19005;BME280;9635;52.078;8.648;2022-07-12T07:14:29;101395.72;;;19.17;60.94
19005;BME280;9635;52.078;8.648;2022-07-12T07:19:32;101394.00;;;18.71;62.53
19005;BME280;9635;52.078;8.648;2022-07-12T07:24:35;101414.34;;;19.66;62.57
19005;BME280;9635;52.078;8.648;2022-07-12T07:29:39;101403.59;;;21.18;55.24
19005;BME280;9635;52.078;8.648;2022-07-12T07:34:59;101403.25;;;24.18;49.61
19005;BME280;9635;52.078;8.648;2022-07-12T07:40:02;101394.88;;;28.02;42.45
19005;BME280;9635;52.078;8.648;2022-07-12T07:45:08;101405.09;;;25.84;42.71
19005;BME280;9635;52.078;8.648;2022-07-12T07:50:18;101416.69;;;24.28;45.56
19005;BME280;9635;52.078;8.648;2022-07-12T07:55:21;101410.91;;;21.01;54.43
19005;BME280;9635;52.078;8.648;2022-07-12T08:00:26;101406.81;;;21.05;54.36
19005;BME280;9635;52.078;8.648;2022-07-12T08:05:29;101401.63;;;24.39;46.16
19005;BME280;9635;52.078;8.648;2022-07-12T08:10:31;101400.41;;;24.12;46.56
19005;BME280;9635;52.078;8.648;2022-07-12T08:15:36;101393.34;;;22.33;50.83
19005;BME280;9635;52.078;8.648;2022-07-12T08:20:39;101389.41;;;22.36;51.45
19005;BME280;9635;52.078;8.648;2022-07-12T08:25:48;101377.28;;;21.17;52.46
19005;BME280;9635;52.078;8.648;2022-07-12T08:30:52;101385.03;;;20.63;53.83
19005;BME280;9635;52.078;8.648;2022-07-12T08:35:55;101377.94;;;21.02;53.22
19005;BME280;9635;52.078;8.648;2022-07-12T08:40:58;101377.09;;;21.59;52.25
19005;BME280;9635;52.078;8.648;2022-07-12T08:46:06;101375.06;;;21.61;51.63
19005;BME280;9635;52.078;8.648;2022-07-12T08:51:10;101384.13;;;21.37;52.25
19005;BME280;9635;52.078;8.648;2022-07-12T08:56:31;101393.13;;;23.05;50.40
19005;BME280;9635;52.078;8.648;2022-07-12T09:01:43;101390.22;;;23.07;48.50
19005;BME280;9635;52.078;8.648;2022-07-12T09:06:47;101379.94;;;23.32;49.08
19005;BME280;9635;52.078;8.648;2022-07-12T09:11:51;101391.72;;;24.08;46.45
19005;BME280;9635;52.078;8.648;2022-07-12T09:17:03;101387.06;;;23.79;48.69
19005;BME280;9635;52.078;8.648;2022-07-12T09:22:14;101387.81;;;24.83;47.11
19005;BME280;9635;52.078;8.648;2022-07-12T09:27:24;101378.84;;;25.60;45.87
19005;BME280;9635;52.078;8.648;2022-07-12T09:32:28;101389.88;;;25.39;43.72
19005;BME280;9635;52.078;8.648;2022-07-12T09:37:50;101395.31;;;24.38;46.13
19005;BME280;9635;52.078;8.648;2022-07-12T09:42:53;101380.81;;;24.15;47.01
19005;BME280;9635;52.078;8.648;2022-07-12T09:47:59;101380.16;;;23.98;46.93
19005;BME280;9635;52.078;8.648;2022-07-12T09:53:03;101382.84;;;23.30;48.26
19005;BME280;9635;52.078;8.648;2022-07-12T09:58:07;101379.78;;;24.30;46.27
19005;BME280;9635;52.078;8.648;2022-07-12T10:03:13;101369.75;;;25.60;44.59
19005;BME280;9635;52.078;8.648;2022-07-12T10:08:17;101363.03;;;24.98;45.41
19005;BME280;9635;52.078;8.648;2022-07-12T10:13:20;101355.03;;;24.82;46.60
19005;BME280;9635;52.078;8.648;2022-07-12T10:18:25;101351.97;;;25.62;44.98
19005;BME280;9635;52.078;8.648;2022-07-12T10:23:32;101357.94;;;26.97;42.54
19005;BME280;9635;52.078;8.648;2022-07-12T10:28:54;101362.91;;;26.54;41.35
19005;BME280;9635;52.078;8.648;2022-07-12T10:34:20;101355.84;;;26.38;41.20
19005;BME280;9635;52.078;8.648;2022-07-12T10:39:24;101339.38;;;26.10;43.05
19005;BME280;9635;52.078;8.648;2022-07-12T10:44:34;101335.38;;;26.67;41.28
19005;BME280;9635;52.078;8.648;2022-07-12T10:49:43;101328.09;;;27.41;40.95
19005;BME280;9635;52.078;8.648;2022-07-12T10:55:16;101319.88;;;26.52;39.02
19005;BME280;9635;52.078;8.648;2022-07-12T11:00:19;101332.22;;;26.70;39.16
19005;BME280;9635;52.078;8.648;2022-07-12T11:05:26;101329.78;;;27.48;38.20
19005;BME280;9635;52.078;8.648;2022-07-12T11:10:29;101320.31;;;27.89;37.98
19005;BME280;9635;52.078;8.648;2022-07-12T11:15:32;101316.13;;;27.67;37.53
19005;BME280;9635;52.078;8.648;2022-07-12T11:20:36;101306.25;;;28.11;37.34
19005;BME280;9635;52.078;8.648;2022-07-12T11:25:39;101306.91;;;28.13;38.21
19005;BME280;9635;52.078;8.648;2022-07-12T11:30:48;101291.47;;;29.32;36.18
19005;BME280;9635;52.078;8.648;2022-07-12T11:35:54;101290.81;;;28.80;36.79
19005;BME280;9635;52.078;8.648;2022-07-12T11:40:58;101290.41;;;29.33;35.32
19005;BME280;9635;52.078;8.648;2022-07-12T11:46:02;101275.84;;;29.99;34.68
19005;BME280;9635;52.078;8.648;2022-07-12T11:51:10;101276.63;;;30.07;34.35
19005;BME280;9635;52.078;8.648;2022-07-12T11:56:13;101282.69;;;30.34;35.05
19005;BME280;9635;52.078;8.648;2022-07-12T12:01:16;101273.81;;;29.08;35.86
19005;BME280;9635;52.078;8.648;2022-07-12T12:06:20;101271.59;;;30.34;35.33
19005;BME280;9635;52.078;8.648;2022-07-12T12:11:27;101275.63;;;31.15;33.74
19005;BME280;9635;52.078;8.648;2022-07-12T12:16:32;101270.09;;;31.62;33.72
19005;BME280;9635;52.078;8.648;2022-07-12T12:21:37;101268.31;;;31.68;33.29
19005;BME280;9635;52.078;8.648;2022-07-12T12:26:40;101262.47;;;30.99;33.42
19005;BME280;9635;52.078;8.648;2022-07-12T12:31:56;101262.03;;;31.49;32.69
19005;BME280;9635;52.078;8.648;2022-07-12T12:37:04;101254.69;;;31.31;33.48
19005;BME280;9635;52.078;8.648;2022-07-12T12:42:10;101243.72;;;31.24;33.01
19005;BME280;9635;52.078;8.648;2022-07-12T12:47:14;101241.63;;;30.54;34.76
19005;BME280;9635;52.078;8.648;2022-07-12T12:52:47;101250.16;;;30.41;35.73
19005;BME280;9635;52.078;8.648;2022-07-12T12:57:51;101228.28;;;30.21;33.27
19005;BME280;9635;52.078;8.648;2022-07-12T13:02:53;101227.63;;;30.49;34.93
19005;BME280;9635;52.078;8.648;2022-07-12T13:08:01;101238.88;;;31.08;33.47
19005;BME280;9635;52.078;8.648;2022-07-12T13:13:04;101230.28;;;30.86;32.05
19005;BME280;9635;52.078;8.648;2022-07-12T13:18:07;101234.78;;;30.15;33.22
19005;BME280;9635;52.078;8.648;2022-07-12T13:23:12;101231.47;;;31.72;32.80
19005;BME280;9635;52.078;8.648;2022-07-12T13:28:15;101230.78;;;32.34;31.93
19005;BME280;9635;52.078;8.648;2022-07-12T13:33:18;101228.97;;;31.47;30.32
19005;BME280;9635;52.078;8.648;2022-07-12T13:38:22;101230.44;;;31.38;29.73
19005;BME280;9635;52.078;8.648;2022-07-12T13:43:27;101224.53;;;31.87;30.89
19005;BME280;9635;52.078;8.648;2022-07-12T13:48:30;101224.97;;;32.36;30.64
19005;BME280;9635;52.078;8.648;2022-07-12T13:53:34;101226.19;;;31.71;31.12
19005;BME280;9635;52.078;8.648;2022-07-12T13:58:37;101225.53;;;31.81;32.32
19005;BME280;9635;52.078;8.648;2022-07-12T14:03:40;101229.16;;;31.81;31.96
19005;BME280;9635;52.078;8.648;2022-07-12T14:08:45;101228.81;;;31.54;31.75
19005;BME280;9635;52.078;8.648;2022-07-12T14:13:54;101214.84;;;30.66;32.38
19005;BME280;9635;52.078;8.648;2022-07-12T14:18:57;101206.94;;;30.63;33.61
19005;BME280;9635;52.078;8.648;2022-07-12T14:24:01;101214.28;;;30.16;33.41
19005;BME280;9635;52.078;8.648;2022-07-12T14:29:04;101208.63;;;30.53;33.59
19005;BME280;9635;52.078;8.648;2022-07-12T14:34:07;101208.50;;;30.59;33.00
19005;BME280;9635;52.078;8.648;2022-07-12T14:39:11;101213.31;;;29.55;33.80
19005;BME280;9635;52.078;8.648;2022-07-12T14:44:14;101203.34;;;30.21;33.61
19005;BME280;9635;52.078;8.648;2022-07-12T14:49:17;101199.94;;;29.89;33.59
19005;BME280;9635;52.078;8.648;2022-07-12T14:54:22;101198.41;;;29.93;34.01
19005;BME280;9635;52.078;8.648;2022-07-12T14:59:25;101204.09;;;29.98;33.74
19005;BME280;9635;52.078;8.648;2022-07-12T15:04:29;101208.38;;;29.94;34.06
19005;BME280;9635;52.078;8.648;2022-07-12T15:09:33;101202.00;;;29.93;32.67
19005;BME280;9635;52.078;8.648;2022-07-12T15:14:36;101201.22;;;30.35;33.28
19005;BME280;9635;52.078;8.648;2022-07-12T15:19:39;101196.94;;;30.62;32.38
19005;BME280;9635;52.078;8.648;2022-07-12T15:24:43;101185.91;;;30.86;31.78
19005;BME280;9635;52.078;8.648;2022-07-12T15:29:46;101177.59;;;30.98;30.87
19005;BME280;9635;52.078;8.648;2022-07-12T15:34:49;101169.94;;;31.92;31.58
19005;BME280;9635;52.078;8.648;2022-07-12T15:39:53;101168.28;;;32.54;30.83
19005;BME280;9635;52.078;8.648;2022-07-12T15:44:56;101166.88;;;32.68;30.29
19005;BME280;9635;52.078;8.648;2022-07-12T15:49:59;101166.56;;;31.90;30.89
19005;BME280;9635;52.078;8.648;2022-07-12T15:55:04;101164.69;;;31.03;31.46
19005;BME280;9635;52.078;8.648;2022-07-12T16:00:11;101161.75;;;31.10;31.77
19005;BME280;9635;52.078;8.648;2022-07-12T16:05:16;101150.09;;;30.73;33.03
19005;BME280;9635;52.078;8.648;2022-07-12T16:10:20;101150.72;;;30.02;33.20
19005;BME280;9635;52.078;8.648;2022-07-12T16:15:24;101147.38;;;29.52;32.84
19005;BME280;9635;52.078;8.648;2022-07-12T16:20:28;101135.03;;;28.92;34.07
19005;BME280;9635;52.078;8.648;2022-07-12T16:25:32;101133.81;;;28.07;35.15
19005;BME280;9635;52.078;8.648;2022-07-12T16:30:36;101137.59;;;28.12;35.37
19005;BME280;9635;52.078;8.648;2022-07-12T16:35:39;101130.50;;;28.23;36.02
19005;BME280;9635;52.078;8.648;2022-07-12T16:40:44;101123.81;;;28.37;35.77
19005;BME280;9635;52.078;8.648;2022-07-12T16:45:46;101128.59;;;28.23;36.30
19005;BME280;9635;52.078;8.648;2022-07-12T16:50:49;101117.81;;;27.77;37.11
19005;BME280;9635;52.078;8.648;2022-07-12T16:56:14;101115.78;;;28.04;38.19
19005;BME280;9635;52.078;8.648;2022-07-12T17:01:19;101114.91;;;28.35;37.29
19005;BME280;9635;52.078;8.648;2022-07-12T17:06:22;101107.56;;;28.47;38.34
19005;BME280;9635;52.078;8.648;2022-07-12T17:11:28;101104.13;;;28.27;38.40
19005;BME280;9635;52.078;8.648;2022-07-12T17:16:31;101104.75;;;27.97;38.72
19005;BME280;9635;52.078;8.648;2022-07-12T17:21:35;101106.25;;;27.55;41.42
19005;BME280;9635;52.078;8.648;2022-07-12T17:26:39;101093.63;;;27.21;42.17
19005;BME280;9635;52.078;8.648;2022-07-12T17:31:42;101091.09;;;27.19;42.97
19005;BME280;9635;52.078;8.648;2022-07-12T17:36:45;101097.28;;;27.14;43.72
19005;BME280;9635;52.078;8.648;2022-07-12T17:41:56;101085.94;;;28.44;41.67
19005;BME280;9635;52.078;8.648;2022-07-12T17:46:59;101089.63;;;28.63;39.93
19005;BME280;9635;52.078;8.648;2022-07-12T17:52:02;101084.00;;;31.45;38.57
19005;BME280;9635;52.078;8.648;2022-07-12T17:57:06;101079.41;;;32.59;33.71
19005;BME280;9635;52.078;8.648;2022-07-12T18:02:09;101088.72;;;30.81;36.37
19005;BME280;9635;52.078;8.648;2022-07-12T18:07:12;101085.03;;;29.31;39.34
19005;BME280;9635;52.078;8.648;2022-07-12T18:12:16;101078.94;;;28.67;38.67
19005;BME280;9635;52.078;8.648;2022-07-12T18:17:36;101084.38;;;27.98;39.73
19005;BME280;9635;52.078;8.648;2022-07-12T18:22:57;101097.63;;;27.31;40.94
19005;BME280;9635;52.078;8.648;2022-07-12T18:28:02;101105.84;;;26.66;42.01
19005;BME280;9635;52.078;8.648;2022-07-12T18:33:06;101104.38;;;26.37;43.01
19005;BME280;9635;52.078;8.648;2022-07-12T18:38:09;101106.22;;;26.10;44.23
19005;BME280;9635;52.078;8.648;2022-07-12T18:43:14;101104.91;;;25.79;44.16
19005;BME280;9635;52.078;8.648;2022-07-12T18:48:16;101105.72;;;25.25;44.60
19005;BME280;9635;52.078;8.648;2022-07-12T18:53:19;101098.72;;;25.16;45.29
19005;BME280;9635;52.078;8.648;2022-07-12T18:58:24;101091.38;;;24.95;45.88
19005;BME280;9635;52.078;8.648;2022-07-12T19:03:26;101099.53;;;24.53;45.82
19005;BME280;9635;52.078;8.648;2022-07-12T19:08:29;101094.19;;;24.24;46.38
19005;BME280;9635;52.078;8.648;2022-07-12T19:13:34;101095.81;;;23.97;46.58
19005;BME280;9635;52.078;8.648;2022-07-12T19:18:37;101104.59;;;23.71;46.91
19005;BME280;9635;52.078;8.648;2022-07-12T19:23:40;101104.06;;;23.60;46.81
19005;BME280;9635;52.078;8.648;2022-07-12T19:28:44;101107.25;;;23.42;46.49
19005;BME280;9635;52.078;8.648;2022-07-12T19:33:47;101100.84;;;23.20;47.09
19005;BME280;9635;52.078;8.648;2022-07-12T19:38:50;101105.84;;;23.17;46.86
19005;BME280;9635;52.078;8.648;2022-07-12T19:43:54;101109.78;;;23.14;47.24
19005;BME280;9635;52.078;8.648;2022-07-12T19:48:57;101100.94;;;23.12;47.05
19005;BME280;9635;52.078;8.648;2022-07-12T19:54:00;101107.22;;;22.98;46.76
19005;BME280;9635;52.078;8.648;2022-07-12T19:59:05;101098.06;;;22.91;46.41
19005;BME280;9635;52.078;8.648;2022-07-12T20:04:08;101117.13;;;22.84;46.17
19005;BME280;9635;52.078;8.648;2022-07-12T20:09:10;101116.75;;;22.58;46.39
19005;BME280;9635;52.078;8.648;2022-07-12T20:14:15;101115.78;;;22.65;47.24
19005;BME280;9635;52.078;8.648;2022-07-12T20:19:18;101122.50;;;22.63;49.08
19005;BME280;9635;52.078;8.648;2022-07-12T20:24:21;101118.50;;;22.50;49.70
19005;BME280;9635;52.078;8.648;2022-07-12T20:29:25;101107.97;;;22.39;50.00
19005;BME280;9635;52.078;8.648;2022-07-12T20:34:28;101099.53;;;22.26;49.32
19005;BME280;9635;52.078;8.648;2022-07-12T20:39:33;101103.31;;;22.25;49.82
19005;BME280;9635;52.078;8.648;2022-07-12T20:44:38;101109.16;;;22.22;49.56
19005;BME280;9635;52.078;8.648;2022-07-12T20:49:41;101112.13;;;22.12;49.48
19005;BME280;9635;52.078;8.648;2022-07-12T20:54:43;101103.19;;;21.95;49.85
19005;BME280;9635;52.078;8.648;2022-07-12T20:59:48;101102.34;;;21.95;49.04
19005;BME280;9635;52.078;8.648;2022-07-12T21:04:51;101097.59;;;21.88;49.78
19005;BME280;9635;52.078;8.648;2022-07-12T21:09:54;101092.47;;;21.85;50.21
19005;BME280;9635;52.078;8.648;2022-07-12T21:15:00;101099.56;;;21.72;51.59
19005;BME280;9635;52.078;8.648;2022-07-12T21:20:03;101096.50;;;21.66;52.27
19005;BME280;9635;52.078;8.648;2022-07-12T21:25:07;101098.91;;;21.70;52.59
19005;BME280;9635;52.078;8.648;2022-07-12T21:30:11;101101.78;;;21.76;52.56
19005;BME280;9635;52.078;8.648;2022-07-12T21:35:14;101099.06;;;21.68;52.83
19005;BME280;9635;52.078;8.648;2022-07-12T21:40:17;101107.63;;;21.65;52.45
19005;BME280;9635;52.078;8.648;2022-07-12T21:45:21;101091.53;;;21.70;52.72
19005;BME280;9635;52.078;8.648;2022-07-12T21:50:24;101093.91;;;21.73;52.84
19005;BME280;9635;52.078;8.648;2022-07-12T21:55:27;101084.72;;;21.66;53.31
19005;BME280;9635;52.078;8.648;2022-07-12T22:00:31;101085.44;;;21.60;53.59
19005;BME280;9635;52.078;8.648;2022-07-12T22:05:34;101086.69;;;21.49;54.06
19005;BME280;9635;52.078;8.648;2022-07-12T22:10:37;101069.34;;;21.42;54.20
19005;BME280;9635;52.078;8.648;2022-07-12T22:15:42;101058.78;;;21.31;54.73
19005;BME280;9635;52.078;8.648;2022-07-12T22:20:44;101063.13;;;21.17;55.24
19005;BME280;9635;52.078;8.648;2022-07-12T22:25:48;101058.25;;;21.04;55.99
19005;BME280;9635;52.078;8.648;2022-07-12T22:30:52;101054.78;;;21.02;56.22
19005;BME280;9635;52.078;8.648;2022-07-12T22:35:55;101051.59;;;20.90;56.63
19005;BME280;9635;52.078;8.648;2022-07-12T22:40:58;101048.94;;;20.66;57.04
19005;BME280;9635;52.078;8.648;2022-07-12T22:46:04;101036.00;;;20.51;57.66
19005;BME280;9635;52.078;8.648;2022-07-12T22:51:07;101031.59;;;20.50;57.79
19005;BME280;9635;52.078;8.648;2022-07-12T22:56:28;101030.06;;;20.48;58.24
19005;BME280;9635;52.078;8.648;2022-07-12T23:01:32;101032.63;;;20.49;58.20
19005;BME280;9635;52.078;8.648;2022-07-12T23:06:37;101034.81;;;20.54;58.08
19005;BME280;9635;52.078;8.648;2022-07-12T23:11:40;101031.41;;;20.60;57.79
19005;BME280;9635;52.078;8.648;2022-07-12T23:16:45;101029.34;;;20.54;57.90
19005;BME280;9635;52.078;8.648;2022-07-12T23:21:48;101017.59;;;20.53;58.12
19005;BME280;9635;52.078;8.648;2022-07-12T23:26:51;101021.50;;;20.51;58.13
19005;BME280;9635;52.078;8.648;2022-07-12T23:31:55;101029.03;;;20.49;58.40
19005;BME280;9635;52.078;8.648;2022-07-12T23:36:58;101028.84;;;20.59;58.42
19005;BME280;9635;52.078;8.648;2022-07-12T23:42:01;101018.94;;;20.58;57.98
19005;BME280;9635;52.078;8.648;2022-07-12T23:47:05;101030.53;;;20.51;58.28
19005;BME280;9635;52.078;8.648;2022-07-12T23:52:09;101034.31;;;20.50;58.44
19005;BME280;9635;52.078;8.648;2022-07-12T23:57:12;101045.41;;;20.57;58.18
